sensor_id;sensor_type;location;lat;lon;timestamp;P1;durP1;ratioP1;P2;durP2;ratioP2
4375;SDS011;2202;50.866;12.750;2022-08-07T00:02:25;4.27;;;2.83;;
4375;SDS011;2202;50.866;12.750;2022-08-07T00:04:53;5.23;;;3.23;;
4375;SDS011;2202;50.866;12.750;2022-08-07T00:07:21;4.80;;;3.20;;
4375;SDS011;2202;50.866;12.750;2022-08-07T00:09:48;4.17;;;2.33;;
4375;SDS011;2202;50.866;12.750;2022-08-07T00:12:15;5.33;;;2.70;;
4375;SDS011;2202;50.866;12.750;2022-08-07T00:14:41;4.10;;;2.83;;
4375;SDS011;2202;50.866;12.750;2022-08-07T00:17:08;4.73;;;2.80;;
4375;SDS011;2202;50.866;12.750;2022-08-07T00:19:35;5.13;;;2.63;;
4375;SDS011;2202;50.866;12.750;2022-08-07T00:22:02;8.70;;;2.57;;
4375;SDS011;2202;50.866;12.750;2022-08-07T00:24:30;4.10;;;2.87;;
4375;SDS011;2202;50.866;12.750;2022-08-07T00:26:57;6.03;;;3.27;;
4375;SDS011;2202;50.866;12.750;2022-08-07T00:29:24;5.67;;;3.07;;
4375;SDS011;2202;50.866;12.750;2022-08-07T00:31:53;7.10;;;2.77;;
4375;SDS011;2202;50.866;12.750;2022-08-07T00:34:23;4.40;;;2.50;;
4375;SDS011;2202;50.866;12.750;2022-08-07T00:36:50;4.63;;;2.50;;
4375;SDS011;2202;50.866;12.750;2022-08-07T00:39:17;4.83;;;2.67;;
4375;SDS011;2202;50.866;12.750;2022-08-07T00:41:49;4.50;;;2.27;;
4375;SDS011;2202;50.866;12.750;2022-08-07T00:44:17;6.07;;;3.03;;
4375;SDS011;2202;50.866;12.750;2022-08-07T00:46:44;4.53;;;2.60;;
4375;SDS011;2202;50.866;12.750;2022-08-07T00:49:11;4.50;;;2.90;;
4375;SDS011;2202;50.866;12.750;2022-08-07T00:51:38;9.10;;;4.80;;
4375;SDS011;2202;50.866;12.750;2022-08-07T00:54:05;4.13;;;2.33;;
4375;SDS011;2202;50.866;12.750;2022-08-07T00:56:32;4.20;;;2.70;;
4375;SDS011;2202;50.866;12.750;2022-08-07T00:59:01;5.30;;;2.30;;
4375;SDS011;2202;50.866;12.750;2022-08-07T01:01:29;4.50;;;3.13;;
4375;SDS011;2202;50.866;12.750;2022-08-07T01:03:56;5.67;;;2.93;;
4375;SDS011;2202;50.866;12.750;2022-08-07T01:06:24;5.30;;;2.70;;
4375;SDS011;2202;50.866;12.750;2022-08-07T01:08:51;4.37;;;2.43;;
4375;SDS011;2202;50.866;12.750;2022-08-07T01:11:18;5.10;;;2.90;;
4375;SDS011;2202;50.866;12.750;2022-08-07T01:13:45;4.13;;;2.40;;
4375;SDS011;2202;50.866;12.750;2022-08-07T01:16:14;4.40;;;2.57;;
4375;SDS011;2202;50.866;12.750;2022-08-07T01:18:41;4.23;;;2.53;;
4375;SDS011;2202;50.866;12.750;2022-08-07T01:21:10;5.40;;;2.30;;
4375;SDS011;2202;50.866;12.750;2022-08-07T01:23:39;7.50;;;2.20;;
4375;SDS011;2202;50.866;12.750;2022-08-07T01:26:07;4.50;;;2.30;;
4375;SDS011;2202;50.866;12.750;2022-08-07T01:28:35;4.50;;;2.43;;
4375;SDS011;2202;50.866;12.750;2022-08-07T01:31:03;7.57;;;2.60;;
4375;SDS011;2202;50.866;12.750;2022-08-07T01:33:30;4.40;;;2.50;;
4375;SDS011;2202;50.866;12.750;2022-08-07T01:35:58;6.60;;;2.10;;
4375;SDS011;2202;50.866;12.750;2022-08-07T01:38:28;4.40;;;2.33;;
4375;SDS011;2202;50.866;12.750;2022-08-07T01:40:57;5.37;;;2.80;;
4375;SDS011;2202;50.866;12.750;2022-08-07T01:43:25;4.60;;;2.30;;
4375;SDS011;2202;50.866;12.750;2022-08-07T01:45:53;7.63;;;3.60;;
4375;SDS011;2202;50.866;12.750;2022-08-07T01:48:20;4.73;;;2.70;;
4375;SDS011;2202;50.866;12.750;2022-08-07T01:50:48;4.77;;;2.30;;
4375;SDS011;2202;50.866;12.750;2022-08-07T01:53:22;4.90;;;2.43;;
4375;SDS011;2202;50.866;12.750;2022-08-07T01:55:54;4.00;;;2.33;;
4375;SDS011;2202;50.866;12.750;2022-08-07T01:58:23;4.60;;;2.50;;
4375;SDS011;2202;50.866;12.750;2022-08-07T02:00:57;4.40;;;2.43;;
4375;SDS011;2202;50.866;12.750;2022-08-07T02:03:27;5.30;;;2.63;;
4375;SDS011;2202;50.866;12.750;2022-08-07T02:05:59;4.80;;;2.60;;
4375;SDS011;2202;50.866;12.750;2022-08-07T02:08:32;9.63;;;2.73;;
4375;SDS011;2202;50.866;12.750;2022-08-07T02:11:03;6.73;;;2.90;;
4375;SDS011;2202;50.866;12.750;2022-08-07T02:13:30;4.63;;;2.77;;
4375;SDS011;2202;50.866;12.750;2022-08-07T02:15:59;4.70;;;2.10;;
4375;SDS011;2202;50.866;12.750;2022-08-07T02:18:28;4.10;;;2.40;;
4375;SDS011;2202;50.866;12.750;2022-08-07T02:21:00;3.80;;;1.90;;
4375;SDS011;2202;50.866;12.750;2022-08-07T02:23:30;5.37;;;2.80;;
4375;SDS011;2202;50.866;12.750;2022-08-07T02:26:03;4.73;;;2.30;;
4375;SDS011;2202;50.866;12.750;2022-08-07T02:28:30;4.17;;;2.20;;
4375;SDS011;2202;50.866;12.750;2022-08-07T02:31:00;4.17;;;2.20;;
4375;SDS011;2202;50.866;12.750;2022-08-07T02:33:28;4.37;;;1.97;;
4375;SDS011;2202;50.866;12.750;2022-08-07T02:35:56;4.60;;;2.30;;
4375;SDS011;2202;50.866;12.750;2022-08-07T02:38:26;4.07;;;2.33;;
4375;SDS011;2202;50.866;12.750;2022-08-07T02:40:54;4.30;;;1.90;;
4375;SDS011;2202;50.866;12.750;2022-08-07T02:43:24;3.93;;;2.17;;
4375;SDS011;2202;50.866;12.750;2022-08-07T02:45:53;4.27;;;2.67;;
4375;SDS011;2202;50.866;12.750;2022-08-07T02:48:22;4.40;;;2.70;;
4375;SDS011;2202;50.866;12.750;2022-08-07T02:50:49;3.90;;;2.23;;
4375;SDS011;2202;50.866;12.750;2022-08-07T02:53:20;4.10;;;2.33;;
4375;SDS011;2202;50.866;12.750;2022-08-07T02:55:49;4.80;;;3.07;;
4375;SDS011;2202;50.866;12.750;2022-08-07T02:58:20;3.97;;;2.20;;
4375;SDS011;2202;50.866;12.750;2022-08-07T03:00:50;4.50;;;2.40;;
4375;SDS011;2202;50.866;12.750;2022-08-07T03:03:19;3.80;;;2.17;;
4375;SDS011;2202;50.866;12.750;2022-08-07T03:05:48;5.37;;;2.50;;
4375;SDS011;2202;50.866;12.750;2022-08-07T03:08:17;4.13;;;2.47;;
4375;SDS011;2202;50.866;12.750;2022-08-07T03:10:46;4.00;;;2.03;;
4375;SDS011;2202;50.866;12.750;2022-08-07T03:13:14;4.40;;;2.17;;
4375;SDS011;2202;50.866;12.750;2022-08-07T03:15:41;8.63;;;2.63;;
4375;SDS011;2202;50.866;12.750;2022-08-07T03:18:11;4.27;;;2.30;;
4375;SDS011;2202;50.866;12.750;2022-08-07T03:20:39;5.00;;;2.73;;
4375;SDS011;2202;50.866;12.750;2022-08-07T03:23:07;4.03;;;2.10;;
4375;SDS011;2202;50.866;12.750;2022-08-07T03:25:36;4.77;;;2.70;;
4375;SDS011;2202;50.866;12.750;2022-08-07T03:28:04;3.67;;;1.90;;
4375;SDS011;2202;50.866;12.750;2022-08-07T03:30:35;5.70;;;2.60;;
4375;SDS011;2202;50.866;12.750;2022-08-07T03:33:03;4.30;;;2.20;;
4375;SDS011;2202;50.866;12.750;2022-08-07T03:35:33;4.73;;;2.20;;
4375;SDS011;2202;50.866;12.750;2022-08-07T03:38:02;7.10;;;2.57;;
4375;SDS011;2202;50.866;12.750;2022-08-07T03:40:31;4.10;;;2.30;;
4375;SDS011;2202;50.866;12.750;2022-08-07T03:42:58;3.60;;;2.13;;
4375;SDS011;2202;50.866;12.750;2022-08-07T03:45:25;4.90;;;2.57;;
4375;SDS011;2202;50.866;12.750;2022-08-07T03:47:54;5.00;;;2.10;;
4375;SDS011;2202;50.866;12.750;2022-08-07T03:50:22;4.10;;;2.70;;
4375;SDS011;2202;50.866;12.750;2022-08-07T03:52:51;4.33;;;2.10;;
4375;SDS011;2202;50.866;12.750;2022-08-07T03:55:21;5.23;;;2.30;;
4375;SDS011;2202;50.866;12.750;2022-08-07T03:57:48;7.13;;;2.50;;
4375;SDS011;2202;50.866;12.750;2022-08-07T04:00:16;4.27;;;2.40;;
4375;SDS011;2202;50.866;12.750;2022-08-07T04:02:44;5.03;;;2.03;;
4375;SDS011;2202;50.866;12.750;2022-08-07T04:05:12;4.33;;;2.17;;
4375;SDS011;2202;50.866;12.750;2022-08-07T04:07:42;4.60;;;2.03;;
4375;SDS011;2202;50.866;12.750;2022-08-07T04:10:11;4.40;;;2.13;;
4375;SDS011;2202;50.866;12.750;2022-08-07T04:12:38;4.93;;;2.83;;
4375;SDS011;2202;50.866;12.750;2022-08-07T04:15:06;5.37;;;2.80;;
4375;SDS011;2202;50.866;12.750;2022-08-07T04:17:34;4.60;;;2.50;;
4375;SDS011;2202;50.866;12.750;2022-08-07T04:20:02;4.93;;;2.70;;
4375;SDS011;2202;50.866;12.750;2022-08-07T04:22:29;3.93;;;2.17;;
4375;SDS011;2202;50.866;12.750;2022-08-07T04:24:57;4.47;;;2.70;;
4375;SDS011;2202;50.866;12.750;2022-08-07T04:27:27;4.30;;;2.53;;
4375;SDS011;2202;50.866;12.750;2022-08-07T04:29:54;5.17;;;2.30;;
4375;SDS011;2202;50.866;12.750;2022-08-07T04:32:21;4.10;;;2.10;;
4375;SDS011;2202;50.866;12.750;2022-08-07T04:34:48;3.70;;;2.20;;
4375;SDS011;2202;50.866;12.750;2022-08-07T04:37:16;4.30;;;2.60;;
4375;SDS011;2202;50.866;12.750;2022-08-07T04:39:43;5.27;;;2.30;;
4375;SDS011;2202;50.866;12.750;2022-08-07T04:42:10;7.00;;;2.07;;
4375;SDS011;2202;50.866;12.750;2022-08-07T04:44:38;6.63;;;2.63;;
4375;SDS011;2202;50.866;12.750;2022-08-07T04:47:07;5.60;;;3.07;;
4375;SDS011;2202;50.866;12.750;2022-08-07T04:49:41;4.23;;;2.23;;
4375;SDS011;2202;50.866;12.750;2022-08-07T04:52:13;3.50;;;1.93;;
4375;SDS011;2202;50.866;12.750;2022-08-07T04:54:50;4.03;;;2.10;;
4375;SDS011;2202;50.866;12.750;2022-08-07T04:57:29;9.90;;;3.10;;
4375;SDS011;2202;50.866;12.750;2022-08-07T05:00:03;5.83;;;2.87;;
4375;SDS011;2202;50.866;12.750;2022-08-07T05:02:34;4.70;;;2.47;;
4375;SDS011;2202;50.866;12.750;2022-08-07T05:05:11;4.10;;;2.50;;
4375;SDS011;2202;50.866;12.750;2022-08-07T05:07:46;4.17;;;2.30;;
4375;SDS011;2202;50.866;12.750;2022-08-07T05:10:20;4.63;;;2.70;;
4375;SDS011;2202;50.866;12.750;2022-08-07T05:12:53;3.80;;;2.17;;
4375;SDS011;2202;50.866;12.750;2022-08-07T05:15:26;3.90;;;2.10;;
4375;SDS011;2202;50.866;12.750;2022-08-07T05:18:00;3.90;;;2.30;;
4375;SDS011;2202;50.866;12.750;2022-08-07T05:20:31;3.83;;;2.10;;
4375;SDS011;2202;50.866;12.750;2022-08-07T05:23:03;4.00;;;2.13;;
4375;SDS011;2202;50.866;12.750;2022-08-07T05:25:33;4.67;;;2.50;;
4375;SDS011;2202;50.866;12.750;2022-08-07T05:28:02;5.37;;;2.50;;
4375;SDS011;2202;50.866;12.750;2022-08-07T05:30:32;4.80;;;2.43;;
4375;SDS011;2202;50.866;12.750;2022-08-07T05:33:00;6.90;;;2.13;;
4375;SDS011;2202;50.866;12.750;2022-08-07T05:35:29;4.00;;;2.10;;
4375;SDS011;2202;50.866;12.750;2022-08-07T05:37:57;4.87;;;2.37;;
4375;SDS011;2202;50.866;12.750;2022-08-07T05:40:25;5.40;;;2.57;;
4375;SDS011;2202;50.866;12.750;2022-08-07T05:42:52;4.77;;;2.77;;
4375;SDS011;2202;50.866;12.750;2022-08-07T05:45:20;4.83;;;2.43;;
4375;SDS011;2202;50.866;12.750;2022-08-07T05:47:49;4.20;;;2.20;;
4375;SDS011;2202;50.866;12.750;2022-08-07T05:50:17;5.93;;;2.00;;
4375;SDS011;2202;50.866;12.750;2022-08-07T05:52:44;3.93;;;2.23;;
4375;SDS011;2202;50.866;12.750;2022-08-07T05:55:11;3.80;;;2.00;;
4375;SDS011;2202;50.866;12.750;2022-08-07T05:57:39;7.90;;;4.20;;
4375;SDS011;2202;50.866;12.750;2022-08-07T06:00:06;7.40;;;4.13;;
4375;SDS011;2202;50.866;12.750;2022-08-07T06:02:34;7.27;;;2.40;;
4375;SDS011;2202;50.866;12.750;2022-08-07T06:05:03;4.80;;;2.07;;
4375;SDS011;2202;50.866;12.750;2022-08-07T06:07:32;3.53;;;1.83;;
4375;SDS011;2202;50.866;12.750;2022-08-07T06:10:00;4.10;;;1.77;;
4375;SDS011;2202;50.866;12.750;2022-08-07T06:12:29;4.70;;;1.60;;
4375;SDS011;2202;50.866;12.750;2022-08-07T06:14:56;3.00;;;1.53;;
4375;SDS011;2202;50.866;12.750;2022-08-07T06:17:23;3.13;;;1.77;;
4375;SDS011;2202;50.866;12.750;2022-08-07T06:19:52;3.80;;;1.73;;
4375;SDS011;2202;50.866;12.750;2022-08-07T06:22:21;4.73;;;1.80;;
4375;SDS011;2202;50.866;12.750;2022-08-07T06:24:50;2.60;;;1.30;;
4375;SDS011;2202;50.866;12.750;2022-08-07T06:27:20;3.20;;;2.20;;
4375;SDS011;2202;50.866;12.750;2022-08-07T06:29:47;8.10;;;2.20;;
4375;SDS011;2202;50.866;12.750;2022-08-07T06:32:14;3.27;;;1.33;;
4375;SDS011;2202;50.866;12.750;2022-08-07T06:34:41;3.20;;;1.50;;
4375;SDS011;2202;50.866;12.750;2022-08-07T06:37:08;2.40;;;1.03;;
4375;SDS011;2202;50.866;12.750;2022-08-07T06:39:36;3.13;;;1.23;;
4375;SDS011;2202;50.866;12.750;2022-08-07T06:42:05;2.40;;;1.30;;
4375;SDS011;2202;50.866;12.750;2022-08-07T06:44:33;4.40;;;1.40;;
4375;SDS011;2202;50.866;12.750;2022-08-07T06:47:02;6.63;;;2.17;;
4375;SDS011;2202;50.866;12.750;2022-08-07T06:49:30;3.70;;;1.83;;
4375;SDS011;2202;50.866;12.750;2022-08-07T06:51:57;3.60;;;1.87;;
4375;SDS011;2202;50.866;12.750;2022-08-07T06:54:25;4.10;;;2.50;;
4375;SDS011;2202;50.866;12.750;2022-08-07T06:56:55;2.80;;;1.20;;
4375;SDS011;2202;50.866;12.750;2022-08-07T06:59:25;3.27;;;1.73;;
4375;SDS011;2202;50.866;12.750;2022-08-07T07:01:55;4.77;;;1.10;;
4375;SDS011;2202;50.866;12.750;2022-08-07T07:04:23;2.30;;;1.10;;
4375;SDS011;2202;50.866;12.750;2022-08-07T07:06:50;3.70;;;1.20;;
4375;SDS011;2202;50.866;12.750;2022-08-07T07:09:18;2.50;;;1.20;;
4375;SDS011;2202;50.866;12.750;2022-08-07T07:11:56;2.00;;;0.90;;
4375;SDS011;2202;50.866;12.750;2022-08-07T07:14:28;5.40;;;1.20;;
4375;SDS011;2202;50.866;12.750;2022-08-07T07:16:59;1.70;;;0.90;;
4375;SDS011;2202;50.866;12.750;2022-08-07T07:19:32;1.80;;;1.00;;
4375;SDS011;2202;50.866;12.750;2022-08-07T07:22:02;2.57;;;1.10;;
4375;SDS011;2202;50.866;12.750;2022-08-07T07:24:30;3.07;;;1.30;;
4375;SDS011;2202;50.866;12.750;2022-08-07T07:26:58;3.80;;;1.10;;
4375;SDS011;2202;50.866;12.750;2022-08-07T07:29:29;3.07;;;1.33;;
4375;SDS011;2202;50.866;12.750;2022-08-07T07:32:01;3.13;;;1.10;;
4375;SDS011;2202;50.866;12.750;2022-08-07T07:34:32;1.90;;;1.10;;
4375;SDS011;2202;50.866;12.750;2022-08-07T07:37:02;2.10;;;1.20;;
4375;SDS011;2202;50.866;12.750;2022-08-07T07:39:30;3.33;;;1.20;;
4375;SDS011;2202;50.866;12.750;2022-08-07T07:42:01;2.10;;;1.00;;
4375;SDS011;2202;50.866;12.750;2022-08-07T07:44:30;4.73;;;1.33;;
4375;SDS011;2202;50.866;12.750;2022-08-07T07:46:58;1.90;;;0.80;;
4375;SDS011;2202;50.866;12.750;2022-08-07T07:49:28;2.13;;;1.40;;
4375;SDS011;2202;50.866;12.750;2022-08-07T07:51:56;2.20;;;1.13;;
4375;SDS011;2202;50.866;12.750;2022-08-07T07:54:25;3.33;;;1.20;;
4375;SDS011;2202;50.866;12.750;2022-08-07T07:56:53;1.93;;;1.20;;
4375;SDS011;2202;50.866;12.750;2022-08-07T07:59:23;2.23;;;1.20;;
4375;SDS011;2202;50.866;12.750;2022-08-07T08:01:50;2.73;;;0.97;;
4375;SDS011;2202;50.866;12.750;2022-08-07T08:04:19;2.57;;;1.43;;
4375;SDS011;2202;50.866;12.750;2022-08-07T08:06:46;3.40;;;1.10;;
4375;SDS011;2202;50.866;12.750;2022-08-07T08:09:16;1.90;;;1.20;;
4375;SDS011;2202;50.866;12.750;2022-08-07T08:11:45;2.20;;;1.10;;
4375;SDS011;2202;50.866;12.750;2022-08-07T08:14:12;1.80;;;1.10;;
4375;SDS011;2202;50.866;12.750;2022-08-07T08:16:42;3.90;;;1.20;;
4375;SDS011;2202;50.866;12.750;2022-08-07T08:19:12;2.43;;;1.20;;
4375;SDS011;2202;50.866;12.750;2022-08-07T08:21:43;2.47;;;1.17;;
4375;SDS011;2202;50.866;12.750;2022-08-07T08:24:30;2.20;;;1.20;;
4375;SDS011;2202;50.866;12.750;2022-08-07T08:27:19;1.90;;;1.20;;
4375;SDS011;2202;50.866;12.750;2022-08-07T08:29:50;3.37;;;1.27;;
4375;SDS011;2202;50.866;12.750;2022-08-07T08:32:22;2.03;;;1.20;;
4375;SDS011;2202;50.866;12.750;2022-08-07T08:34:50;3.30;;;1.27;;
4375;SDS011;2202;50.866;12.750;2022-08-07T08:37:20;5.33;;;1.07;;
4375;SDS011;2202;50.866;12.750;2022-08-07T08:39:48;1.80;;;1.07;;
4375;SDS011;2202;50.866;12.750;2022-08-07T08:42:19;2.10;;;1.00;;
4375;SDS011;2202;50.866;12.750;2022-08-07T08:44:51;2.20;;;1.13;;
4375;SDS011;2202;50.866;12.750;2022-08-07T08:47:25;1.70;;;0.80;;
4375;SDS011;2202;50.866;12.750;2022-08-07T08:50:01;1.70;;;0.90;;
4375;SDS011;2202;50.866;12.750;2022-08-07T08:52:36;1.80;;;1.20;;
4375;SDS011;2202;50.866;12.750;2022-08-07T08:55:08;1.60;;;0.93;;
4375;SDS011;2202;50.866;12.750;2022-08-07T08:57:45;2.27;;;1.20;;
4375;SDS011;2202;50.866;12.750;2022-08-07T09:00:20;1.47;;;0.77;;
4375;SDS011;2202;50.866;12.750;2022-08-07T09:02:55;1.97;;;1.10;;
4375;SDS011;2202;50.866;12.750;2022-08-07T09:05:27;2.23;;;1.00;;
4375;SDS011;2202;50.866;12.750;2022-08-07T09:08:05;2.23;;;1.00;;
4375;SDS011;2202;50.866;12.750;2022-08-07T09:10:41;1.77;;;0.97;;
4375;SDS011;2202;50.866;12.750;2022-08-07T09:13:12;2.43;;;1.00;;
4375;SDS011;2202;50.866;12.750;2022-08-07T09:15:49;2.50;;;1.33;;
4375;SDS011;2202;50.866;12.750;2022-08-07T09:18:30;4.27;;;1.20;;
4375;SDS011;2202;50.866;12.750;2022-08-07T09:21:11;2.50;;;1.57;;
4375;SDS011;2202;50.866;12.750;2022-08-07T09:23:52;2.07;;;1.33;;
4375;SDS011;2202;50.866;12.750;2022-08-07T09:26:26;3.43;;;0.90;;
4375;SDS011;2202;50.866;12.750;2022-08-07T09:29:01;1.80;;;0.90;;
4375;SDS011;2202;50.866;12.750;2022-08-07T09:31:34;2.00;;;1.40;;
4375;SDS011;2202;50.866;12.750;2022-08-07T09:34:10;3.53;;;1.20;;
4375;SDS011;2202;50.866;12.750;2022-08-07T09:36:43;2.20;;;1.20;;
4375;SDS011;2202;50.866;12.750;2022-08-07T09:39:21;2.00;;;0.97;;
4375;SDS011;2202;50.866;12.750;2022-08-07T09:42:01;4.57;;;1.30;;
4375;SDS011;2202;50.866;12.750;2022-08-07T09:44:43;5.50;;;1.43;;
4375;SDS011;2202;50.866;12.750;2022-08-07T09:47:22;2.00;;;1.23;;
4375;SDS011;2202;50.866;12.750;2022-08-07T09:50:00;9.07;;;1.13;;
4375;SDS011;2202;50.866;12.750;2022-08-07T09:52:33;1.87;;;1.07;;
4375;SDS011;2202;50.866;12.750;2022-08-07T09:55:08;2.00;;;1.10;;
4375;SDS011;2202;50.866;12.750;2022-08-07T09:57:54;1.80;;;1.20;;
4375;SDS011;2202;50.866;12.750;2022-08-07T10:00:54;3.30;;;1.33;;
4375;SDS011;2202;50.866;12.750;2022-08-07T10:03:33;1.70;;;1.07;;
4375;SDS011;2202;50.866;12.750;2022-08-07T10:06:22;1.80;;;1.27;;
4375;SDS011;2202;50.866;12.750;2022-08-07T10:09:06;2.97;;;1.20;;
4375;SDS011;2202;50.866;12.750;2022-08-07T10:11:47;1.60;;;1.00;;
4375;SDS011;2202;50.866;12.750;2022-08-07T10:14:27;2.87;;;0.90;;
4375;SDS011;2202;50.866;12.750;2022-08-07T10:17:08;4.60;;;1.30;;
4375;SDS011;2202;50.866;12.750;2022-08-07T10:19:54;1.90;;;1.33;;
4375;SDS011;2202;50.866;12.750;2022-08-07T10:22:41;2.57;;;1.10;;
4375;SDS011;2202;50.866;12.750;2022-08-07T10:25:24;2.70;;;1.23;;
4375;SDS011;2202;50.866;12.750;2022-08-07T10:28:06;2.20;;;1.00;;
4375;SDS011;2202;50.866;12.750;2022-08-07T10:30:48;9.00;;;1.10;;
4375;SDS011;2202;50.866;12.750;2022-08-07T10:33:31;1.90;;;1.10;;
4375;SDS011;2202;50.866;12.750;2022-08-07T10:36:27;1.63;;;1.17;;
4375;SDS011;2202;50.866;12.750;2022-08-07T10:39:08;2.17;;;1.10;;
4375;SDS011;2202;50.866;12.750;2022-08-07T10:41:45;3.53;;;1.47;;
4375;SDS011;2202;50.866;12.750;2022-08-07T10:44:19;1.70;;;1.10;;
4375;SDS011;2202;50.866;12.750;2022-08-07T10:46:53;2.10;;;1.40;;
4375;SDS011;2202;50.866;12.750;2022-08-07T10:49:25;1.80;;;1.20;;
4375;SDS011;2202;50.866;12.750;2022-08-07T10:52:01;4.33;;;1.00;;
4375;SDS011;2202;50.866;12.750;2022-08-07T10:54:36;1.50;;;1.10;;
4375;SDS011;2202;50.866;12.750;2022-08-07T10:57:10;1.90;;;1.10;;
4375;SDS011;2202;50.866;12.750;2022-08-07T10:59:51;1.60;;;0.90;;
4375;SDS011;2202;50.866;12.750;2022-08-07T11:02:27;3.40;;;1.20;;
4375;SDS011;2202;50.866;12.750;2022-08-07T11:05:13;1.70;;;1.07;;
4375;SDS011;2202;50.866;12.750;2022-08-07T11:07:55;2.43;;;1.17;;
4375;SDS011;2202;50.866;12.750;2022-08-07T11:10:31;1.80;;;1.17;;
4375;SDS011;2202;50.866;12.750;2022-08-07T11:13:06;1.40;;;1.10;;
4375;SDS011;2202;50.866;12.750;2022-08-07T11:15:38;2.60;;;1.03;;
4375;SDS011;2202;50.866;12.750;2022-08-07T11:18:09;1.60;;;1.20;;
4375;SDS011;2202;50.866;12.750;2022-08-07T11:20:42;1.70;;;1.00;;
4375;SDS011;2202;50.866;12.750;2022-08-07T11:23:17;2.67;;;1.20;;
4375;SDS011;2202;50.866;12.750;2022-08-07T11:25:51;1.90;;;1.23;;
4375;SDS011;2202;50.866;12.750;2022-08-07T11:28:27;2.10;;;1.37;;
4375;SDS011;2202;50.866;12.750;2022-08-07T11:31:01;2.30;;;1.17;;
4375;SDS011;2202;50.866;12.750;2022-08-07T11:33:33;1.70;;;0.90;;
4375;SDS011;2202;50.866;12.750;2022-08-07T11:36:12;1.57;;;1.00;;
4375;SDS011;2202;50.866;12.750;2022-08-07T11:38:48;1.60;;;1.03;;
4375;SDS011;2202;50.866;12.750;2022-08-07T11:41:28;1.50;;;1.00;;
4375;SDS011;2202;50.866;12.750;2022-08-07T11:44:02;3.43;;;1.10;;
4375;SDS011;2202;50.866;12.750;2022-08-07T11:46:42;1.60;;;0.90;;
4375;SDS011;2202;50.866;12.750;2022-08-07T11:49:33;2.73;;;1.03;;
4375;SDS011;2202;50.866;12.750;2022-08-07T11:52:18;2.50;;;1.33;;
4375;SDS011;2202;50.866;12.750;2022-08-07T11:54:57;1.70;;;1.00;;
4375;SDS011;2202;50.866;12.750;2022-08-07T11:57:32;2.90;;;1.20;;
4375;SDS011;2202;50.866;12.750;2022-08-07T12:00:07;2.03;;;1.00;;
4375;SDS011;2202;50.866;12.750;2022-08-07T12:02:46;1.70;;;1.03;;
4375;SDS011;2202;50.866;12.750;2022-08-07T12:05:39;2.10;;;0.80;;
4375;SDS011;2202;50.866;12.750;2022-08-07T12:08:14;1.80;;;1.00;;
4375;SDS011;2202;50.866;12.750;2022-08-07T12:10:46;1.90;;;1.10;;
4375;SDS011;2202;50.866;12.750;2022-08-07T12:13:21;2.00;;;1.07;;
4375;SDS011;2202;50.866;12.750;2022-08-07T12:15:53;1.70;;;0.90;;
4375;SDS011;2202;50.866;12.750;2022-08-07T12:18:25;1.47;;;0.90;;
4375;SDS011;2202;50.866;12.750;2022-08-07T12:21:00;3.90;;;1.20;;
4375;SDS011;2202;50.866;12.750;2022-08-07T12:23:41;1.50;;;1.10;;
4375;SDS011;2202;50.866;12.750;2022-08-07T12:26:16;1.97;;;1.00;;
4375;SDS011;2202;50.866;12.750;2022-08-07T12:28:54;1.83;;;1.27;;
4375;SDS011;2202;50.866;12.750;2022-08-07T12:31:28;3.20;;;1.00;;
4375;SDS011;2202;50.866;12.750;2022-08-07T12:34:01;1.60;;;1.07;;
4375;SDS011;2202;50.866;12.750;2022-08-07T12:36:29;1.70;;;1.00;;
4375;SDS011;2202;50.866;12.750;2022-08-07T12:39:00;2.23;;;1.33;;
4375;SDS011;2202;50.866;12.750;2022-08-07T12:41:29;1.70;;;1.33;;
4375;SDS011;2202;50.866;12.750;2022-08-07T12:44:00;1.97;;;1.20;;
4375;SDS011;2202;50.866;12.750;2022-08-07T12:46:34;1.90;;;1.20;;
4375;SDS011;2202;50.866;12.750;2022-08-07T12:49:14;1.70;;;1.03;;
4375;SDS011;2202;50.866;12.750;2022-08-07T12:51:48;1.50;;;1.07;;
4375;SDS011;2202;50.866;12.750;2022-08-07T12:54:20;1.63;;;1.00;;
4375;SDS011;2202;50.866;12.750;2022-08-07T12:56:54;1.50;;;0.90;;
4375;SDS011;2202;50.866;12.750;2022-08-07T12:59:26;1.40;;;0.80;;
4375;SDS011;2202;50.866;12.750;2022-08-07T13:01:59;3.77;;;1.20;;
4375;SDS011;2202;50.866;12.750;2022-08-07T13:04:44;1.77;;;1.30;;
4375;SDS011;2202;50.866;12.750;2022-08-07T13:07:26;1.73;;;1.20;;
4375;SDS011;2202;50.866;12.750;2022-08-07T13:10:21;2.37;;;0.87;;
4375;SDS011;2202;50.866;12.750;2022-08-07T13:13:00;1.50;;;0.90;;
4375;SDS011;2202;50.866;12.750;2022-08-07T13:15:52;1.50;;;1.00;;
4375;SDS011;2202;50.866;12.750;2022-08-07T13:18:26;1.80;;;1.17;;
4375;SDS011;2202;50.866;12.750;2022-08-07T13:21:03;2.10;;;1.13;;
4375;SDS011;2202;50.866;12.750;2022-08-07T13:23:37;2.43;;;1.20;;
4375;SDS011;2202;50.866;12.750;2022-08-07T13:26:10;1.77;;;1.17;;
4375;SDS011;2202;50.866;12.750;2022-08-07T13:28:43;3.00;;;1.13;;
4375;SDS011;2202;50.866;12.750;2022-08-07T13:31:16;1.50;;;1.00;;
4375;SDS011;2202;50.866;12.750;2022-08-07T13:33:49;1.70;;;1.10;;
4375;SDS011;2202;50.866;12.750;2022-08-07T13:36:22;1.90;;;1.20;;
4375;SDS011;2202;50.866;12.750;2022-08-07T13:38:57;2.40;;;1.60;;
4375;SDS011;2202;50.866;12.750;2022-08-07T13:41:32;1.97;;;1.23;;
4375;SDS011;2202;50.866;12.750;2022-08-07T13:44:04;2.33;;;0.90;;
4375;SDS011;2202;50.866;12.750;2022-08-07T13:46:34;3.13;;;1.30;;
4375;SDS011;2202;50.866;12.750;2022-08-07T13:49:04;4.60;;;1.10;;
4375;SDS011;2202;50.866;12.750;2022-08-07T13:51:33;1.80;;;1.10;;
4375;SDS011;2202;50.866;12.750;2022-08-07T13:54:04;2.07;;;1.50;;
4375;SDS011;2202;50.866;12.750;2022-08-07T13:56:33;2.07;;;0.93;;
4375;SDS011;2202;50.866;12.750;2022-08-07T13:59:03;3.90;;;1.40;;
4375;SDS011;2202;50.866;12.750;2022-08-07T14:01:36;1.93;;;1.30;;
4375;SDS011;2202;50.866;12.750;2022-08-07T14:04:08;2.43;;;1.10;;
4375;SDS011;2202;50.866;12.750;2022-08-07T14:06:38;2.43;;;0.90;;
4375;SDS011;2202;50.866;12.750;2022-08-07T14:09:08;2.63;;;1.10;;
4375;SDS011;2202;50.866;12.750;2022-08-07T14:11:43;1.93;;;1.53;;
4375;SDS011;2202;50.866;12.750;2022-08-07T14:14:14;2.47;;;1.00;;
4375;SDS011;2202;50.866;12.750;2022-08-07T14:16:45;2.63;;;1.00;;
4375;SDS011;2202;50.866;12.750;2022-08-07T14:19:16;2.20;;;1.03;;
4375;SDS011;2202;50.866;12.750;2022-08-07T14:21:48;1.70;;;1.03;;
4375;SDS011;2202;50.866;12.750;2022-08-07T14:24:21;2.87;;;1.50;;
4375;SDS011;2202;50.866;12.750;2022-08-07T14:26:53;1.60;;;1.00;;
4375;SDS011;2202;50.866;12.750;2022-08-07T14:29:23;1.50;;;0.90;;
4375;SDS011;2202;50.866;12.750;2022-08-07T14:31:53;2.87;;;1.30;;
4375;SDS011;2202;50.866;12.750;2022-08-07T14:34:23;2.00;;;1.20;;
4375;SDS011;2202;50.866;12.750;2022-08-07T14:36:51;1.80;;;1.07;;
4375;SDS011;2202;50.866;12.750;2022-08-07T14:39:18;1.60;;;1.00;;
4375;SDS011;2202;50.866;12.750;2022-08-07T14:41:48;1.60;;;1.00;;
4375;SDS011;2202;50.866;12.750;2022-08-07T14:44:16;1.90;;;1.03;;
4375;SDS011;2202;50.866;12.750;2022-08-07T14:46:44;1.90;;;1.10;;
4375;SDS011;2202;50.866;12.750;2022-08-07T14:49:15;1.90;;;1.10;;
4375;SDS011;2202;50.866;12.750;2022-08-07T14:51:43;4.23;;;1.27;;
4375;SDS011;2202;50.866;12.750;2022-08-07T14:54:13;1.80;;;1.13;;
4375;SDS011;2202;50.866;12.750;2022-08-07T14:56:42;2.63;;;1.20;;
4375;SDS011;2202;50.866;12.750;2022-08-07T14:59:13;2.47;;;1.20;;
4375;SDS011;2202;50.866;12.750;2022-08-07T15:01:45;2.00;;;1.23;;
4375;SDS011;2202;50.866;12.750;2022-08-07T15:04:12;1.63;;;1.03;;
4375;SDS011;2202;50.866;12.750;2022-08-07T15:06:42;1.80;;;1.00;;
4375;SDS011;2202;50.866;12.750;2022-08-07T15:09:12;4.43;;;1.10;;
4375;SDS011;2202;50.866;12.750;2022-08-07T15:11:42;1.70;;;1.00;;
4375;SDS011;2202;50.866;12.750;2022-08-07T15:14:25;1.67;;;1.13;;
4375;SDS011;2202;50.866;12.750;2022-08-07T15:16:56;2.10;;;1.20;;
4375;SDS011;2202;50.866;12.750;2022-08-07T15:19:28;2.73;;;1.63;;
4375;SDS011;2202;50.866;12.750;2022-08-07T15:22:01;1.80;;;1.10;;
4375;SDS011;2202;50.866;12.750;2022-08-07T15:24:31;1.70;;;1.20;;
4375;SDS011;2202;50.866;12.750;2022-08-07T15:27:04;4.50;;;1.70;;
4375;SDS011;2202;50.866;12.750;2022-08-07T15:29:34;2.33;;;1.20;;